Time;durP1;ratioP1;P1;durP2;ratioP2;P2;SDS_P1;SDS_P2;PMS_P1;PMS_P2;Temp;Humidity;BMP_temperature;BMP_pressure;BME280_temperature;BME280_humidity;BME280_pressure;Samples;Min_cycle;Max_cycle;Signal;HPM_P1;HPM_P2
2024/01/05 00:01:47;;;;;;;5.30;4.30;;;23.80;50.70;;;;;;5109586;28;20031;-73
2024/01/05 00:04:13;;;;;;;9.70;4.68;;;23.80;50.70;;;;;;5110737;28;20122;-73
2024/01/05 00:06:39;;;;;;;6.95;4.50;;;23.70;50.80;;;;;;5089843;28;20127;-74
2024/01/05 00:09:08;;;;;;;7.43;4.35;;;23.70;50.90;;;;;;5110793;28;20076;-74
2024/01/05 00:11:34;;;;;;;5.28;4.53;;;23.70;50.90;;;;;;5110680;28;20073;-73
2024/01/05 00:14:01;;;;;;;4.30;2.60;;;23.70;50.90;;;;;;5107273;28;20507;-73
2024/01/05 00:16:27;;;;;;;4.60;3.35;;;23.70;50.90;;;;;;5110324;28;20499;-74
2024/01/05 00:18:53;;;;;;;5.13;3.38;;;23.70;50.90;;;;;;5112165;28;20505;-73
2024/01/05 00:21:26;;;;;;;2.10;1.90;;;23.70;51.00;;;;;;5114555;28;20027;-73
2024/01/05 00:23:52;;;;;;;;;;;23.80;51.00;;;;;;5106077;28;20039;-74
2024/01/05 00:26:19;;;;;;;3.15;2.40;;;23.90;51.10;;;;;;5114888;28;19933;-73
2024/01/05 00:28:46;;;;;;;2.42;2.22;;;23.80;51.10;;;;;;5114726;27;20047;-73
2024/01/05 00:31:14;;;;;;;2.78;2.17;;;23.90;51.20;;;;;;5108403;28;20058;-73
2024/01/05 00:33:41;;;;;;;6.45;3.55;;;23.90;51.20;;;;;;5114674;28;20032;-74
2024/01/05 00:36:11;;;;;;;6.00;3.65;;;23.80;51.10;;;;;;5114573;28;20039;-74
2024/01/05 00:38:38;;;;;;;5.95;3.70;;;23.80;51.10;;;;;;5115033;28;20105;-73
2024/01/05 00:41:05;;;;;;;5.13;3.72;;;23.80;51.10;;;;;;5114497;28;20068;-73
2024/01/05 00:43:31;;;;;;;6.70;3.33;;;23.70;51.10;;;;;;5114338;27;20028;-73
2024/01/05 00:45:57;;;;;;;5.90;3.75;;;23.60;51.00;;;;;;5114467;28;20479;-74
2024/01/05 00:48:23;;;;;;;8.85;3.55;;;23.80;51.10;;;;;;5078308;28;20042;-74
2024/01/05 00:50:49;;;;;;;4.07;3.47;;;23.60;51.00;;;;;;5105708;28;20036;-74
2024/01/05 00:53:16;;;;;;;4.20;3.42;;;23.70;51.30;;;;;;5062486;28;20138;-73
2024/01/05 00:55:42;;;;;;;5.38;3.65;;;23.70;51.30;;;;;;5114254;28;20036;-74
2024/01/05 00:58:08;;;;;;;5.18;3.30;;;23.60;51.30;;;;;;5114520;28;20030;-74
2024/01/05 01:00:34;;;;;;;4.22;3.38;;;23.50;51.40;;;;;;5114794;28;20024;-74
2024/01/05 01:03:01;;;;;;;5.38;3.33;;;23.60;51.40;;;;;;5083668;28;20341;-73
2024/01/05 01:05:27;;;;;;;5.15;3.92;;;23.60;51.40;;;;;;5113429;28;20039;-73
2024/01/05 01:07:53;;;;;;;6.78;4.05;;;23.60;51.40;;;;;;5114228;28;20039;-74
2024/01/05 01:10:19;;;;;;;6.35;3.60;;;23.50;51.50;;;;;;5113627;28;20469;-74
2024/01/05 01:12:45;;;;;;;4.18;3.25;;;23.60;51.50;;;;;;5113661;28;20064;-74
2024/01/05 01:15:11;;;;;;;6.22;3.63;;;23.50;51.50;;;;;;5113192;28;20116;-74
2024/01/05 01:17:37;;;;;;;5.57;3.05;;;23.50;51.50;;;;;;5112852;28;20126;-73
2024/01/05 01:20:04;;;;;;;5.43;3.90;;;23.50;51.60;;;;;;5113686;28;20077;-73
2024/01/05 01:22:30;;;;;;;5.93;3.50;;;23.50;51.50;;;;;;5113596;28;20161;-74
2024/01/05 01:24:56;;;;;;;4.70;3.45;;;23.50;51.50;;;;;;5113352;27;20782;-74
2024/01/05 01:27:22;;;;;;;6.07;3.47;;;23.50;51.50;;;;;;5114217;28;20093;-73
2024/01/05 01:29:48;;;;;;;4.68;3.13;;;23.40;51.40;;;;;;5094325;28;20050;-74
2024/01/05 01:32:14;;;;;;;4.20;3.28;;;23.50;51.50;;;;;;5113460;28;20545;-74
2024/01/05 01:34:40;;;;;;;4.88;3.00;;;23.50;51.50;;;;;;5113264;28;20039;-74
2024/01/05 01:37:07;;;;;;;4.53;3.15;;;23.60;51.50;;;;;;5112469;28;20394;-73
2024/01/05 01:39:34;;;;;;;3.55;3.03;;;23.50;51.50;;;;;;5113774;28;20032;-73
2024/01/05 01:42:00;;;;;;;5.47;3.53;;;23.50;51.50;;;;;;5113153;28;20064;-73
2024/01/05 01:44:26;;;;;;;4.40;2.92;;;23.50;51.50;;;;;;5113139;28;20038;-74
2024/01/05 01:46:55;;;;;;;4.60;3.10;;;23.40;51.30;;;;;;5113126;28;20099;-71
2024/01/05 01:49:23;;;;;;;4.70;3.45;;;23.60;51.50;;;;;;5113527;28;20491;-74
2024/01/05 01:51:49;;;;;;;4.90;3.33;;;23.60;51.50;;;;;;5113004;28;20063;-73
2024/01/05 01:54:16;;;;;;;2.50;2.30;;;23.60;51.50;;;;;;5112821;28;20110;-74
2024/01/05 01:56:45;;;;;;;3.13;2.30;;;23.60;51.50;;;;;;5113197;28;20115;-73
2024/01/05 01:59:12;;;;;;;2.55;2.30;;;23.60;51.50;;;;;;5113180;28;20055;-74
2024/01/05 02:01:41;;;;;;;3.90;2.72;;;23.60;51.50;;;;;;5113226;28;20028;-74
2024/01/05 02:04:14;;;;;;;2.17;1.98;;;23.60;51.50;;;;;;5111432;27;20024;-73
2024/01/05 02:06:47;;;;;;;4.45;2.67;;;23.60;51.50;;;;;;5096295;28;20400;-73
2024/01/05 02:09:13;;;;;;;4.45;2.47;;;23.70;51.60;;;;;;5092988;28;20046;-73
2024/01/05 02:11:40;;;;;;;3.40;2.75;;;23.70;51.60;;;;;;5092414;28;20102;-73
2024/01/05 02:14:06;;;;;;;2.85;2.28;;;23.80;51.60;;;;;;5099403;28;20021;-74
2024/01/05 02:16:32;;;;;;;2.38;1.92;;;23.70;51.60;;;;;;5092696;28;20068;-73
2024/01/05 02:19:18;;;;;;;2.67;2.30;;;23.90;51.70;;;;;;5098474;28;20516;-74
2024/01/05 02:21:49;;;;;;;4.25;2.50;;;23.70;51.60;;;;;;5110977;28;20023;-74
2024/01/05 02:24:15;;;;;;;4.70;2.20;;;23.70;51.60;;;;;;5112510;28;20039;-73
2024/01/05 02:26:41;;;;;;;2.92;2.30;;;23.80;51.60;;;;;;5111360;28;20055;-73
2024/01/05 02:29:08;;;;;;;3.47;2.60;;;23.80;51.60;;;;;;5111731;28;20020;-73
2024/01/05 02:31:34;;;;;;;3.53;2.38;;;23.90;51.70;;;;;;5111407;28;20036;-73
2024/01/05 02:34:00;;;;;;;5.22;2.60;;;23.80;51.60;;;;;;5112053;27;20092;-74
2024/01/05 02:36:27;;;;;;;2.88;2.10;;;23.70;51.60;;;;;;5111793;28;20110;-73
2024/01/05 02:38:53;;;;;;;2.78;2.40;;;23.90;51.70;;;;;;5111356;28;20043;-73
2024/01/05 02:41:19;;;;;;;4.22;2.63;;;23.90;51.70;;;;;;5111547;27;20058;-74
2024/01/05 02:43:45;;;;;;;2.63;2.42;;;23.90;51.70;;;;;;5110055;28;20495;-74
2024/01/05 02:46:11;;;;;;;5.93;2.88;;;23.80;51.60;;;;;;5112354;28;20055;-74
2024/01/05 02:48:37;;;;;;;3.20;2.90;;;23.80;51.60;;;;;;5112313;28;20446;-73
2024/01/05 02:51:03;;;;;;;4.13;2.47;;;23.80;51.50;;;;;;5108843;27;20043;-73
2024/01/05 02:53:29;;;;;;;3.63;2.35;;;23.90;51.70;;;;;;5111466;28;20494;-72
2024/01/05 02:55:55;;;;;;;2.55;2.22;;;23.80;51.60;;;;;;5112135;28;20131;-74
2024/01/05 02:58:21;;;;;;;2.95;2.63;;;23.80;51.50;;;;;;5067767;28;20048;-73
2024/01/05 03:00:48;;;;;;;3.35;2.20;;;23.70;51.50;;;;;;5048657;28;20441;-73
2024/01/05 03:03:14;;;;;;;3.30;2.70;;;23.80;51.40;;;;;;5048836;28;20045;-73
2024/01/05 03:05:40;;;;;;;3.17;2.17;;;23.90;51.60;;;;;;5062588;28;20506;-73
2024/01/05 03:08:06;;;;;;;2.30;2.10;;;23.90;51.70;;;;;;5052094;28;20070;-74
2024/01/05 03:10:32;;;;;;;1.80;1.70;;;23.80;51.60;;;;;;5068504;28;20052;-74
2024/01/05 03:12:58;;;;;;;3.03;1.83;;;23.70;51.60;;;;;;5068266;28;20064;-73
2024/01/05 03:15:24;;;;;;;4.68;2.33;;;23.70;51.60;;;;;;5066996;28;20044;-73
2024/01/05 03:17:50;;;;;;;3.15;2.30;;;23.70;51.50;;;;;;5068405;28;20052;-73
2024/01/05 03:20:17;;;;;;;2.40;2.00;;;23.80;51.40;;;;;;5042449;28;20095;-74
2024/01/05 03:22:43;;;;;;;3.13;2.25;;;23.80;51.30;;;;;;5048549;28;20485;-73
2024/01/05 03:25:10;;;;;;;3.28;2.30;;;23.80;51.40;;;;;;5046273;28;20056;-73
2024/01/05 03:27:39;;;;;;;6.80;2.55;;;23.70;51.30;;;;;;5068560;28;20214;-73
2024/01/05 03:30:06;;;;;;;4.07;2.67;;;23.90;51.40;;;;;;5024844;28;20532;-73
2024/01/05 03:32:32;;;;;;;5.72;3.03;;;23.70;51.20;;;;;;5068392;28;20036;-74
2024/01/05 03:34:58;;;;;;;5.70;3.40;;;23.70;51.10;;;;;;5057661;28;20086;-72
2024/01/05 03:37:24;;;;;;;4.15;3.05;;;23.70;51.10;;;;;;5107476;28;20084;-73
2024/01/05 03:39:51;;;;;;;3.65;2.30;;;23.70;51.10;;;;;;5111196;28;20517;-73
2024/01/05 03:42:17;;;;;;;4.55;2.72;;;23.70;51.10;;;;;;5110966;28;20408;-74
2024/01/05 03:44:44;;;;;;;5.15;2.70;;;23.60;51.00;;;;;;5066200;28;20057;-74
2024/01/05 03:47:10;;;;;;;3.78;2.75;;;23.50;51.00;;;;;;5090648;28;20039;-73
2024/01/05 03:49:36;;;;;;;6.15;2.55;;;23.50;50.90;;;;;;5101910;28;20172;-72
2024/01/05 03:52:02;;;;;;;4.75;2.65;;;23.60;50.90;;;;;;5110375;28;20036;-74
2024/01/05 03:54:28;;;;;;;3.50;2.70;;;23.50;51.00;;;;;;5109308;28;20485;-74
2024/01/05 03:56:54;;;;;;;3.50;2.53;;;23.50;51.00;;;;;;5110658;28;20066;-74
2024/01/05 03:59:20;;;;;;;3.22;2.30;;;23.70;51.10;;;;;;5111334;28;20111;-73
2024/01/05 04:01:49;;;;;;;4.22;2.42;;;23.50;50.90;;;;;;5110933;28;20040;-73
2024/01/05 04:04:15;;;;;;;2.72;2.13;;;23.60;50.90;;;;;;5110928;28;20024;-73
2024/01/05 04:06:41;;;;;;;4.22;2.42;;;23.60;50.90;;;;;;5109468;28;20114;-72
2024/01/05 04:09:10;;;;;;;2.45;2.10;;;23.60;50.80;;;;;;5096570;28;20032;-74
2024/01/05 04:11:39;;;;;;;4.60;2.30;;;23.70;50.90;;;;;;5109786;28;20055;-74
2024/01/05 04:14:06;;;;;;;3.83;2.67;;;23.60;50.80;;;;;;5110687;28;20023;-73
2024/01/05 04:16:33;;;;;;;5.50;3.10;;;23.60;50.80;;;;;;5111446;28;20469;-73
2024/01/05 04:18:59;;;;;;;3.60;2.35;;;23.60;50.70;;;;;;5111148;28;20024;-73
2024/01/05 04:21:25;;;;;;;3.35;2.47;;;23.50;50.70;;;;;;5106126;28;20106;-74
2024/01/05 04:23:58;;;;;;;4.18;2.30;;;23.60;50.70;;;;;;5110337;28;20036;-75
2024/01/05 04:26:24;;;;;;;4.07;2.55;;;23.50;50.70;;;;;;5108459;28;20039;-73
2024/01/05 04:28:50;;;;;;;3.42;2.65;;;23.50;50.70;;;;;;5111194;28;20039;-73
2024/01/05 04:31:16;;;;;;;2.95;2.65;;;23.50;50.70;;;;;;5108978;28;20491;-73
2024/01/05 04:33:43;;;;;;;3.85;2.20;;;23.50;50.70;;;;;;5109563;28;20157;-74
2024/01/05 04:36:10;;;;;;;3.72;2.72;;;23.40;50.50;;;;;;5110170;28;20034;-74
2024/01/05 04:38:36;;;;;;;3.67;2.65;;;23.60;50.60;;;;;;5111207;28;20045;-73
2024/01/05 04:41:02;;;;;;;3.72;2.72;;;23.50;50.60;;;;;;5110343;28;20053;-74
2024/01/05 04:43:28;;;;;;;4.97;3.15;;;23.40;50.50;;;;;;5110614;28;20035;-73
2024/01/05 04:45:54;;;;;;;4.65;2.60;;;23.40;50.60;;;;;;5110157;28;20451;-73
2024/01/05 04:48:20;;;;;;;4.07;2.70;;;23.50;50.70;;;;;;5110570;28;20111;-73
2024/01/05 04:50:47;;;;;;;5.00;3.40;;;23.50;50.70;;;;;;5108642;28;20047;-72
2024/01/05 04:53:13;;;;;;;4.70;2.60;;;23.40;50.60;;;;;;5110193;28;20125;-73
2024/01/05 04:55:39;;;;;;;3.33;2.53;;;23.40;50.50;;;;;;5103300;28;20032;-73
2024/01/05 04:58:05;;;;;;;3.28;2.50;;;23.50;50.60;;;;;;5110856;28;20035;-74
2024/01/05 05:00:31;;;;;;;6.22;2.67;;;23.50;50.60;;;;;;5110291;28;20332;-74
2024/01/05 05:02:57;;;;;;;2.95;2.65;;;23.50;50.60;;;;;;5110607;28;20070;-73
2024/01/05 05:05:23;;;;;;;4.28;3.13;;;23.50;50.50;;;;;;5113269;28;20101;-74
2024/01/05 05:07:49;;;;;;;4.22;3.30;;;23.70;50.60;;;;;;5114489;28;20024;-73
2024/01/05 05:10:15;;;;;;;3.80;2.95;;;23.50;50.40;;;;;;5113945;28;20355;-74
2024/01/05 05:12:42;;;;;;;4.30;2.65;;;23.50;50.40;;;;;;5114022;28;20172;-73
2024/01/05 05:15:10;;;;;;;4.03;2.78;;;23.50;50.40;;;;;;5113968;28;20066;-73
2024/01/05 05:17:36;;;;;;;5.40;3.65;;;23.50;50.30;;;;;;5114073;28;20051;-73
2024/01/05 05:20:03;;;;;;;5.25;3.20;;;23.40;50.20;;;;;;5112620;28;20119;-74
2024/01/05 05:22:29;;;;;;;5.28;3.35;;;23.40;50.20;;;;;;5113865;28;20455;-74
2024/01/05 05:24:58;;;;;;;5.70;4.68;;;23.40;50.30;;;;;;5095451;28;20071;-74
2024/01/05 05:27:24;;;;;;;6.95;3.67;;;23.30;50.30;;;;;;5114209;28;20026;-73
2024/01/05 05:29:50;;;;;;;4.88;2.33;;;23.40;50.20;;;;;;5069820;28;20130;-73
2024/01/05 05:32:16;;;;;;;4.97;2.10;;;23.40;50.30;;;;;;5111685;28;20038;-73
2024/01/05 05:34:44;;;;;;;3.03;1.45;;;23.40;50.30;;;;;;5113238;28;20036;-74
2024/01/05 05:37:10;;;;;;;1.75;1.45;;;23.40;50.20;;;;;;5111850;28;20028;-74
2024/01/05 05:39:36;;;;;;;1.40;1.30;;;23.30;50.20;;;;;;5111234;28;20523;-73
2024/01/05 05:42:03;;;;;;;2.08;1.73;;;23.30;50.30;;;;;;5093836;28;20056;-74
2024/01/05 05:44:29;;;;;;;2.90;2.00;;;23.30;50.30;;;;;;5098812;28;20104;-76
2024/01/05 05:46:56;;;;;;;3.28;1.90;;;23.30;50.30;;;;;;5104697;28;20390;-75
2024/01/05 05:49:22;;;;;;;1.52;1.30;;;23.40;50.10;;;;;;5103535;28;20115;-77
2024/01/05 05:51:48;;;;;;;1.65;1.00;;;23.30;48.40;;;;;;5100364;28;20040;-77
2024/01/05 05:54:14;;;;;;;2.03;1.35;;;23.40;48.50;;;;;;5084344;28;20047;-79
2024/01/05 05:56:41;;;;;;;6.35;2.00;;;23.50;44.70;;;;;;5100932;28;20032;-80
2024/01/05 05:59:07;;;;;;;2.05;1.42;;;23.50;42.70;;;;;;5104343;28;20418;-77
2024/01/05 06:01:33;;;;;;;1.75;1.38;;;23.60;48.40;;;;;;5104637;28;20080;-77
2024/01/05 06:03:59;;;;;;;1.30;1.20;;;23.50;42.90;;;;;;5103737;28;20139;-80
2024/01/05 06:06:25;;;;;;;1.63;1.30;;;23.60;41.50;;;;;;5104136;28;20023;-78
2024/01/05 06:08:51;;;;;;;1.98;1.40;;;23.40;41.00;;;;;;5103303;28;20131;-78
2024/01/05 06:11:18;;;;;;;2.15;1.77;;;23.50;42.10;;;;;;5104207;28;20039;-78
2024/01/05 06:13:45;;;;;;;1.70;1.60;;;23.50;43.50;;;;;;5103568;28;20058;-78
2024/01/05 06:16:12;;;;;;;5.53;2.08;;;23.60;47.00;;;;;;5103367;28;20500;-74
2024/01/05 06:18:39;;;;;;;2.45;1.63;;;23.70;48.20;;;;;;5072341;28;20040;-78
2024/01/05 06:21:06;;;;;;;2.70;1.50;;;23.80;49.30;;;;;;5109039;28;20026;-77
2024/01/05 06:23:32;;;;;;;7.00;4.07;;;23.70;44.00;;;;;;5112371;27;20030;-79
2024/01/05 06:25:58;;;;;;;6.72;3.70;;;23.70;44.20;;;;;;5113179;28;20046;-73
2024/01/05 06:28:24;;;;;;;5.65;3.65;;;23.80;54.90;;;;;;5111072;28;20081;-70
2024/01/05 06:30:50;;;;;;;3.95;2.55;;;23.90;53.90;;;;;;5106196;28;20028;-74
2024/01/05 06:33:16;;;;;;;4.05;2.95;;;23.90;54.10;;;;;;5112580;28;20023;-73
2024/01/05 06:35:43;;;;;;;4.38;2.22;;;24.00;53.80;;;;;;5102561;28;20388;-76
2024/01/05 06:38:09;;;;;;;4.18;2.50;;;23.90;54.00;;;;;;5092289;28;20032;-74
2024/01/05 06:40:35;;;;;;;4.57;2.58;;;23.80;53.80;;;;;;5106044;28;20123;-74
2024/01/05 06:43:01;;;;;;;2.97;2.25;;;23.90;54.30;;;;;;5092075;28;20041;-73
2024/01/05 06:45:28;;;;;;;3.38;2.38;;;23.80;54.20;;;;;;5111470;28;20107;-75
2024/01/05 06:48:04;;;;;;;6.65;2.75;;;23.80;54.40;;;;;;5094771;28;20526;-75
2024/01/05 06:50:30;;;;;;;3.03;2.13;;;23.80;54.40;;;;;;5111208;28;20031;-73
2024/01/05 06:52:56;;;;;;;2.80;1.88;;;23.80;54.40;;;;;;5110361;28;20107;-74
2024/01/05 06:55:22;;;;;;;3.17;2.38;;;23.80;54.60;;;;;;5109843;28;20093;-76
2024/01/05 06:57:48;;;;;;;1.42;1.00;;;23.90;54.60;;;;;;5111015;28;20046;-74
2024/01/05 07:00:15;;;;;;;3.65;1.45;;;23.80;54.40;;;;;;5111257;28;20023;-75
2024/01/05 07:02:41;;;;;;;1.25;1.02;;;24.00;54.50;;;;;;5111029;28;20024;-75
2024/01/05 07:05:07;;;;;;;5.70;0.93;;;23.80;54.20;;;;;;5110476;28;20035;-76
2024/01/05 07:07:33;;;;;;;3.50;1.98;;;24.10;54.30;;;;;;5107688;28;20036;-76
2024/01/05 07:10:00;;;;;;;3.25;1.30;;;23.80;54.00;;;;;;5097550;28;20035;-75
2024/01/05 07:12:29;;;;;;;3.33;1.52;;;24.00;54.00;;;;;;5082949;28;20048;-76
2024/01/05 07:14:55;;;;;;;2.20;1.40;;;23.90;53.00;;;;;;5101399;28;20043;-78
2024/01/05 07:17:21;;;;;;;1.45;1.20;;;23.90;52.80;;;;;;5099791;28;20040;-76
2024/01/05 07:19:47;;;;;;;1.73;1.00;;;24.00;52.30;;;;;;5072142;28;20051;-76
2024/01/05 07:22:13;;;;;;;1.33;1.10;;;23.90;51.70;;;;;;5096603;28;20047;-73
2024/01/05 07:24:39;;;;;;;4.13;1.90;;;23.90;51.30;;;;;;5107977;28;20051;-72
2024/01/05 07:27:06;;;;;;;2.65;1.05;;;23.90;51.40;;;;;;5106074;28;20089;-73
2024/01/05 07:29:32;;;;;;;1.73;1.05;;;24.00;51.40;;;;;;5092608;28;20051;-72
2024/01/05 07:31:58;;;;;;;2.72;1.17;;;23.80;51.10;;;;;;5106370;28;20115;-78
2024/01/05 07:34:25;;;;;;;3.30;1.80;;;24.00;50.70;;;;;;5112090;28;20027;-78
2024/01/05 07:36:51;;;;;;;5.63;2.05;;;24.00;49.70;;;;;;5111926;28;20115;-78
2024/01/05 07:39:17;;;;;;;7.97;2.60;;;23.80;49.60;;;;;;5111814;28;20054;-77
2024/01/05 07:41:43;;;;;;;6.00;2.40;;;23.90;50.80;;;;;;5083114;28;20035;-74
2024/01/05 07:44:09;;;;;;;3.17;2.10;;;23.90;50.30;;;;;;5100710;28;20043;-80
2024/01/05 07:46:45;;;;;;;4.53;2.40;;;23.90;50.20;;;;;;5099305;28;20043;-75
2024/01/05 07:49:11;;;;;;;3.53;2.00;;;23.90;50.20;;;;;;5096595;28;20117;-79
2024/01/05 07:51:37;;;;;;;2.08;1.70;;;23.80;49.40;;;;;;5099484;28;20110;-79
2024/01/05 07:54:03;;;;;;;3.47;2.22;;;23.90;49.10;;;;;;5100080;28;20032;-79
2024/01/05 07:56:29;;;;;;;4.43;2.22;;;23.90;48.70;;;;;;5093791;27;20032;-77
2024/01/05 07:58:56;;;;;;;1.90;1.75;;;23.90;48.30;;;;;;5099813;28;20039;-78
2024/01/05 08:01:22;;;;;;;3.65;2.00;;;24.00;48.10;;;;;;5110575;28;20035;-79
2024/01/05 08:03:48;;;;;;;3.55;1.90;;;23.90;47.90;;;;;;5110979;28;20032;-77
2024/01/05 08:06:18;;;;;;;2.60;2.08;;;23.90;47.90;;;;;;5111404;28;20420;-79
2024/01/05 08:08:46;;;;;;;3.15;2.00;;;23.90;48.00;;;;;;5109986;28;20039;-79
2024/01/05 08:11:13;;;;;;;4.47;2.15;;;23.90;48.00;;;;;;5111084;28;20038;-78
2024/01/05 08:13:40;;;;;;;2.75;1.60;;;24.00;48.00;;;;;;5108857;28;20144;-79
2024/01/05 08:16:07;;;;;;;2.97;2.00;;;23.90;48.10;;;;;;5107044;28;20040;-79
2024/01/05 08:18:33;;;;;;;2.40;1.67;;;23.90;48.10;;;;;;5111536;28;20044;-78
2024/01/05 08:21:00;;;;;;;5.80;1.95;;;23.90;48.30;;;;;;5111307;28;20028;-78
2024/01/05 08:23:26;;;;;;;4.18;2.20;;;23.90;48.30;;;;;;5110986;28;20016;-78
2024/01/05 08:25:52;;;;;;;7.07;2.90;;;23.90;48.40;;;;;;5111525;28;20027;-79
2024/01/05 08:28:18;;;;;;;3.88;1.70;;;23.90;48.50;;;;;;5111561;28;20038;-78
2024/01/05 08:30:44;;;;;;;2.58;1.80;;;23.90;48.60;;;;;;5111477;28;20043;-78
2024/01/05 08:33:11;;;;;;;3.38;1.60;;;23.90;48.70;;;;;;5111257;28;20089;-78
2024/01/05 08:35:37;;;;;;;1.75;1.40;;;23.90;48.80;;;;;;5110944;28;20550;-79
2024/01/05 08:38:04;;;;;;;4.35;2.03;;;24.00;48.90;;;;;;5108195;28;20103;-78
2024/01/05 08:40:30;;;;;;;1.60;1.50;;;23.90;48.90;;;;;;5113454;28;20039;-79
2024/01/05 08:43:00;;;;;;;1.77;1.45;;;23.90;48.90;;;;;;5115312;28;20409;-79
2024/01/05 08:45:30;;;;;;;2.78;1.77;;;23.90;48.90;;;;;;5115014;28;20028;-79
2024/01/05 08:48:16;;;;;;;1.98;1.65;;;23.90;49.00;;;;;;5113943;28;20073;-79
2024/01/05 08:50:43;;;;;;;3.15;1.40;;;23.90;49.10;;;;;;5095917;28;20044;-79
2024/01/05 08:53:09;;;;;;;2.40;1.77;;;23.80;49.10;;;;;;5114780;28;20047;-77
2024/01/05 08:55:36;;;;;;;1.77;1.38;;;23.90;49.30;;;;;;5115109;28;20047;-79
2024/01/05 08:58:05;;;;;;;2.83;1.17;;;23.70;49.30;;;;;;5114820;28;20106;-79
2024/01/05 09:00:32;;;;;;;5.90;1.40;;;23.80;49.40;;;;;;5114776;28;20407;-79
2024/01/05 09:03:01;;;;;;;2.85;1.67;;;23.70;49.40;;;;;;5114834;28;20031;-78
2024/01/05 09:05:27;;;;;;;1.42;1.33;;;23.70;49.40;;;;;;5114686;28;20389;-78
2024/01/05 09:07:53;;;;;;;1.88;1.50;;;23.70;49.50;;;;;;5114665;28;20034;-79
2024/01/05 09:10:19;;;;;;;2.38;1.40;;;23.70;49.60;;;;;;5114376;28;20085;-79
2024/01/05 09:12:45;;;;;;;1.60;1.50;;;23.70;49.80;;;;;;5114742;28;20046;-78
2024/01/05 09:15:11;;;;;;;2.05;1.83;;;23.60;49.60;;;;;;5114095;28;20030;-79
2024/01/05 09:17:42;;;;;;;1.55;1.20;;;23.70;48.30;;;;;;5114130;28;20516;-80
2024/01/05 09:20:09;;;;;;;1.95;1.20;;;23.50;49.40;;;;;;5114765;28;20027;-79
2024/01/05 09:22:36;;;;;;;1.40;1.23;;;23.50;49.70;;;;;;5113962;28;20379;-78
2024/01/05 09:25:02;;;;;;;1.77;1.23;;;23.50;49.70;;;;;;5114078;28;20039;-79
2024/01/05 09:27:30;;;;;;;1.73;1.48;;;23.70;49.10;;;;;;5113854;28;20080;-78
2024/01/05 09:29:56;;;;;;;1.52;1.25;;;23.70;49.70;;;;;;5111757;28;20131;-79
2024/01/05 09:32:22;;;;;;;3.03;1.45;;;23.70;49.90;;;;;;5114040;28;20426;-79
2024/01/05 09:34:48;;;;;;;1.50;1.40;;;23.70;49.90;;;;;;5114132;28;20119;-79
2024/01/05 09:37:14;;;;;;;2.42;1.50;;;23.60;49.90;;;;;;5113772;28;20042;-79
2024/01/05 09:40:00;;;;;;;1.70;1.45;;;23.60;49.90;;;;;;5111797;28;20579;-78
2024/01/05 09:42:50;;;;;;;1.88;1.45;;;23.60;50.10;;;;;;5092100;28;20384;-76
2024/01/05 09:45:38;;;;;;;3.22;1.95;;;23.60;50.20;;;;;;5111288;28;20032;-80
2024/01/05 09:48:24;;;;;;;3.92;2.50;;;23.60;50.40;;;;;;5104185;28;20126;-76
2024/01/05 09:51:10;;;;;;;3.70;2.25;;;23.70;50.60;;;;;;5112621;28;20519;-76
2024/01/05 09:53:57;;;;;;;4.05;1.80;;;23.70;51.00;;;;;;5075962;28;20046;-76
2024/01/05 09:56:48;;;;;;;2.92;1.80;;;23.70;51.40;;;;;;5063174;28;20032;-77
2024/01/05 09:59:35;;;;;;;3.45;1.80;;;23.60;51.70;;;;;;5048665;28;20051;-75
2024/01/05 10:02:43;;;;;;;2.22;1.75;;;23.60;52.00;;;;;;5075470;28;20113;-78
2024/01/05 10:05:30;;;;;;;3.20;1.40;;;23.60;52.40;;;;;;5076248;28;20028;-77
2024/01/05 10:08:16;;;;;;;3.42;2.92;;;23.70;52.60;;;;;;5061955;28;20047;-77
2024/01/05 10:11:03;;;;;;;4.22;2.67;;;23.70;52.80;;;;;;5076264;28;20468;-77
2024/01/05 10:13:58;;;;;;;3.75;2.20;;;23.60;53.10;;;;;;5075736;28;20040;-77
2024/01/05 10:16:45;;;;;;;2.38;1.92;;;23.70;53.40;;;;;;5075465;28;20052;-78
2024/01/05 10:19:32;;;;;;;3.30;2.28;;;23.70;53.50;;;;;;5061916;28;20028;-77
2024/01/05 10:22:20;;;;;;;3.45;1.70;;;23.70;53.80;;;;;;5058087;28;20024;-77
2024/01/05 10:25:16;;;;;;;3.05;2.00;;;23.80;54.00;;;;;;5090498;28;20032;-77
2024/01/05 10:28:21;;;;;;;3.50;1.73;;;23.80;54.10;;;;;;5102374;28;20067;-77
2024/01/05 10:31:19;;;;;;;8.00;3.53;;;23.70;54.30;;;;;;5097086;28;20510;-77
2024/01/05 10:34:07;;;;;;;4.63;2.53;;;23.70;54.50;;;;;;5091529;28;20504;-78
2024/01/05 10:37:03;;;;;;;3.30;2.03;;;23.80;54.60;;;;;;5098569;28;20127;-78
2024/01/05 10:39:51;;;;;;;4.68;2.40;;;23.80;54.70;;;;;;5091510;28;20028;-78
2024/01/05 10:42:38;;;;;;;4.72;2.58;;;23.90;55.00;;;;;;5091627;28;20400;-78
2024/01/05 10:45:25;;;;;;;6.28;3.03;;;23.90;55.00;;;;;;5084395;28;20046;-78
2024/01/05 10:48:16;;;;;;;4.55;2.40;;;23.90;55.10;;;;;;5096906;28;20019;-77
2024/01/05 10:51:03;;;;;;;2.38;2.05;;;23.90;55.00;;;;;;5109856;28;20031;-78
2024/01/05 10:53:50;;;;;;;2.75;1.95;;;23.90;54.90;;;;;;5110752;28;20437;-78
2024/01/05 10:56:41;;;;;;;3.28;1.95;;;23.80;54.70;;;;;;5109024;28;20372;-77
2024/01/05 10:59:27;;;;;;;3.30;2.10;;;23.80;54.50;;;;;;5111451;28;20036;-78
2024/01/05 11:02:21;;;;;;;3.08;1.83;;;23.90;54.40;;;;;;5110028;28;20044;-78
2024/01/05 11:05:11;;;;;;;2.85;1.83;;;23.90;54.30;;;;;;5110900;28;20035;-77
2024/01/05 11:08:01;;;;;;;3.38;2.10;;;24.00;54.20;;;;;;5080524;28;20491;-76
2024/01/05 11:11:11;;;;;;;4.22;2.72;;;23.90;54.10;;;;;;5110475;28;20027;-77
2024/01/05 11:14:09;;;;;;;3.03;1.88;;;23.90;54.00;;;;;;5105663;28;20570;-77
2024/01/05 11:17:25;;;;;;;2.50;1.83;;;23.90;54.00;;;;;;5110231;28;20063;-78
2024/01/05 11:20:39;;;;;;;2.65;1.60;;;24.00;53.90;;;;;;5033932;28;20086;-77
2024/01/05 11:23:26;;;;;;;2.83;2.03;;;23.90;53.80;;;;;;5015024;28;20446;-77
2024/01/05 11:26:32;;;;;;;1.58;1.40;;;23.90;53.70;;;;;;5023006;28;20049;-77
2024/01/05 11:29:51;;;;;;;3.72;1.77;;;23.90;53.70;;;;;;5038888;28;20048;-78
2024/01/05 11:32:45;;;;;;;1.42;1.25;;;23.90;53.60;;;;;;5031899;28;20563;-77
2024/01/05 11:35:42;;;;;;;1.85;1.67;;;23.90;53.60;;;;;;5043607;28;20048;-79
2024/01/05 11:38:30;;;;;;;3.78;2.33;;;24.00;53.50;;;;;;5041561;28;20051;-75
2024/01/05 11:41:20;;;;;;;2.17;1.70;;;24.00;53.40;;;;;;5033232;28;20055;-73
2024/01/05 11:44:33;;;;;;;3.08;2.60;;;23.90;53.70;;;;;;5016473;28;20072;-72
2024/01/05 11:47:40;;;;;;;64.60;13.50;;;23.80;53.00;;;;;;5020687;28;20454;-75
2024/01/05 11:50:33;;;;;;;2.03;1.48;;;23.90;51.00;;;;;;5026404;28;20037;-75
2024/01/05 11:53:19;;;;;;;3.03;1.80;;;24.10;46.60;;;;;;5021581;28;20127;-75
2024/01/05 11:56:11;;;;;;;4.38;1.63;;;24.10;48.80;;;;;;5064233;28;20431;-79
2024/01/05 11:58:57;;;;;;;5.78;2.00;;;23.90;45.20;;;;;;5110210;28;20039;-76
2024/01/05 12:01:43;;;;;;;2.60;1.90;;;23.90;42.90;;;;;;5109856;28;20028;-75
2024/01/05 12:04:45;;;;;;;4.38;2.03;;;24.00;47.00;;;;;;5110234;28;20031;-76
2024/01/05 12:07:31;;;;;;;5.22;1.60;;;24.00;46.40;;;;;;5098894;28;20066;-75
2024/01/05 12:10:27;;;;;;;2.28;1.50;;;24.00;45.40;;;;;;5110404;28;20138;-74
2024/01/05 12:13:13;;;;;;;10.52;1.75;;;23.90;41.80;;;;;;5107106;28;20475;-75
2024/01/05 12:16:02;;;;;;;2.70;1.52;;;24.10;39.50;;;;;;5109083;28;20420;-72
2024/01/05 12:18:49;;;;;;;3.45;1.83;;;24.00;38.90;;;;;;5082483;28;20091;-76
2024/01/05 12:21:35;;;;;;;2.72;1.40;;;23.90;38.90;;;;;;5112024;28;20040;-76
2024/01/05 12:24:21;;;;;;;1.95;1.75;;;23.90;38.60;;;;;;5114419;28;20422;-75
2024/01/05 12:27:07;;;;;;;2.55;1.80;;;24.00;38.10;;;;;;5113894;28;20033;-74
2024/01/05 12:29:53;;;;;;;4.20;1.85;;;24.00;38.10;;;;;;5110947;28;20036;-77
2024/01/05 12:32:41;;;;;;;6.22;1.88;;;23.90;37.80;;;;;;5113673;28;20039;-73
2024/01/05 12:35:28;;;;;;;3.55;1.95;;;24.00;44.30;;;;;;5113563;28;20513;-78
2024/01/05 12:38:30;;;;;;;2.70;1.67;;;24.20;46.30;;;;;;5095719;28;20040;-73
2024/01/05 12:41:19;;;;;;;2.97;1.98;;;24.30;48.00;;;;;;5113964;28;20077;-74
2024/01/05 12:44:07;;;;;;;2.75;1.85;;;24.30;46.00;;;;;;5106278;28;20027;-76
2024/01/05 12:46:53;;;;;;;3.88;1.77;;;24.40;45.40;;;;;;5112596;28;20036;-72
2024/01/05 12:49:39;;;;;;;4.57;2.15;;;24.40;47.70;;;;;;5111986;28;20063;-75
2024/01/05 12:52:38;;;;;;;7.15;3.95;;;24.40;46.20;;;;;;5108612;28;20062;-75
2024/01/05 12:55:28;;;;;;;3.22;2.42;;;24.60;41.10;;;;;;5113536;28;20031;-76
2024/01/05 12:58:14;;;;;;;2.85;2.28;;;24.50;37.30;;;;;;5113418;28;20036;-75
2024/01/05 13:01:03;;;;;;;3.55;2.10;;;24.50;36.90;;;;;;5112299;28;20040;-76
2024/01/05 13:03:53;;;;;;;2.05;1.80;;;24.40;45.40;;;;;;5113149;28;20065;-77
2024/01/05 13:06:42;;;;;;;2.50;1.73;;;24.50;48.60;;;;;;5112117;28;20470;-70
2024/01/05 13:09:30;;;;;;;2.53;2.05;;;24.60;48.80;;;;;;5103455;28;20039;-76
2024/01/05 13:12:17;;;;;;;3.15;1.73;;;24.60;49.00;;;;;;5112145;28;20410;-75
2024/01/05 13:15:03;;;;;;;3.60;1.73;;;24.60;49.50;;;;;;5083944;28;20364;-73
2024/01/05 13:17:51;;;;;;;4.65;2.05;;;24.70;49.90;;;;;;5095133;28;20067;-81